createdAt,value
2022-12-13T00:02:22.218Z,79.49
2022-12-13T00:07:23.666Z,79.85
2022-12-13T00:12:25.160Z,79.83
2022-12-13T00:17:26.635Z,79.91
2022-12-13T00:22:28.072Z,79.83
2022-12-13T00:27:29.558Z,79.33
2022-12-13T00:32:31.015Z,79.17
2022-12-13T00:37:32.438Z,79.51
2022-12-13T00:42:34.774Z,79.07
2022-12-13T00:47:36.600Z,79.16
2022-12-13T00:52:38.177Z,79.29
2022-12-13T00:57:39.627Z,79.47
2022-12-13T01:02:41.767Z,79.62
2022-12-13T01:07:44.987Z,79.68
2022-12-13T01:12:47.120Z,79.23
2022-12-13T01:17:49.349Z,79.09
2022-12-13T01:22:50.795Z,79.12
2022-12-13T01:27:52.267Z,79.15
2022-12-13T01:32:53.814Z,79.02
2022-12-13T01:37:55.790Z,79.20
2022-12-13T01:42:59.753Z,78.60
2022-12-13T01:48:06.672Z,78.34
2022-12-13T01:53:14.735Z,78.06
2022-12-13T01:58:17.290Z,78.12
2022-12-13T02:03:22.200Z,77.22
2022-12-13T02:08:25.190Z,77.48
2022-12-13T02:13:26.699Z,77.68
2022-12-13T02:18:50.243Z,77.26
2022-12-13T02:23:57.666Z,77.04
2022-12-13T02:29:37.465Z,77.51
2022-12-13T02:34:44.311Z,77.67
2022-12-13T02:39:57.179Z,76.71
2022-12-13T02:45:09.747Z,76.31
2022-12-13T02:50:14.523Z,75.37
2022-12-13T02:55:17.278Z,75.46
2022-12-13T03:00:24.600Z,75.69
2022-12-13T03:05:59.839Z,75.37
2022-12-13T03:11:18.215Z,74.26
2022-12-13T03:16:41.503Z,73.84
2022-12-13T03:21:48.347Z,73.08
2022-12-13T03:26:51.638Z,72.54
2022-12-13T03:31:53.516Z,72.69
2022-12-13T03:36:55.000Z,72.64
2022-12-13T03:41:56.566Z,72.14
2022-12-13T03:46:57.955Z,71.52
2022-12-13T03:52:02.447Z,71.72
2022-12-13T03:57:03.856Z,71.50
2022-12-13T04:02:05.322Z,71.63
2022-12-13T04:07:06.726Z,71.62
2022-12-13T04:12:48.095Z,72.00
2022-12-13T04:17:51.228Z,71.61
2022-12-13T04:22:52.801Z,71.77
2022-12-13T04:27:54.198Z,72.18
2022-12-13T04:32:56.735Z,71.50
2022-12-13T04:37:58.217Z,71.37
2022-12-13T04:42:59.671Z,71.11
2022-12-13T04:48:01.146Z,71.23
2022-12-13T04:53:02.745Z,71.35
2022-12-13T04:58:04.126Z,71.13
2022-12-13T05:03:05.511Z,70.87
2022-12-13T05:08:07.855Z,70.54
2022-12-13T05:13:09.281Z,69.84
2022-12-13T05:18:11.096Z,69.65
2022-12-13T05:23:12.603Z,69.79
2022-12-13T05:28:27.749Z,69.67
2022-12-13T05:33:30.219Z,69.68
2022-12-13T05:38:31.802Z,69.61
2022-12-13T05:43:43.272Z,69.68
2022-12-13T05:48:45.293Z,69.53
2022-12-13T05:53:51.580Z,69.79
2022-12-13T05:58:54.815Z,69.42
2022-12-13T06:03:56.812Z,69.45
2022-12-13T06:08:59.352Z,68.94
2022-12-13T06:14:01.432Z,68.69
2022-12-13T06:19:04.745Z,69.30
2022-12-13T06:24:08.574Z,69.47
2022-12-13T06:29:10.432Z,69.95
2022-12-13T06:34:13.788Z,69.71
2022-12-13T06:39:17.043Z,69.61
2022-12-13T06:44:18.511Z,70.20
2022-12-13T06:49:19.891Z,70.23
2022-12-13T06:54:23.685Z,69.88
2022-12-13T06:59:25.089Z,69.61
2022-12-13T07:04:30.231Z,69.40
2022-12-13T07:09:32.976Z,69.49
2022-12-13T07:14:40.798Z,69.00
2022-12-13T07:19:42.782Z,69.02
2022-12-13T07:24:44.279Z,68.82
2022-12-13T07:29:45.719Z,68.95
2022-12-13T07:34:47.125Z,68.58
2022-12-13T07:39:48.551Z,68.76
2022-12-13T07:44:50.086Z,68.03
2022-12-13T07:49:51.483Z,68.20
2022-12-13T07:54:52.923Z,68.38
2022-12-13T07:59:54.348Z,69.13
2022-12-13T08:04:55.906Z,69.66
2022-12-13T08:09:57.376Z,70.05
2022-12-13T08:14:58.803Z,70.42
2022-12-13T08:20:01.727Z,70.72
2022-12-13T08:25:04.134Z,70.43
2022-12-13T08:30:06.067Z,71.01
2022-12-13T08:35:07.903Z,71.82
2022-12-13T08:40:10.358Z,72.68
2022-12-13T08:45:12.151Z,72.87
2022-12-13T08:50:13.596Z,73.10
2022-12-13T08:55:15.486Z,73.32
2022-12-13T09:00:19.126Z,73.38
2022-12-13T09:05:33.059Z,73.08
2022-12-13T09:10:38.233Z,73.49
2022-12-13T09:15:46.055Z,73.20
2022-12-13T09:20:47.969Z,73.55
2022-12-13T09:26:05.394Z,73.89
2022-12-13T09:31:17.919Z,74.08
2022-12-13T09:36:21.295Z,74.62
2022-12-13T09:41:34.231Z,74.56
2022-12-13T09:46:46.769Z,74.61
2022-12-13T09:52:10.902Z,74.74
2022-12-13T09:57:31.061Z,75.40
2022-12-13T10:02:59.067Z,76.22
2022-12-13T10:08:06.736Z,76.17
2022-12-13T10:13:17.083Z,76.67
2022-12-13T10:18:38.146Z,76.72
2022-12-13T10:24:15.098Z,77.13
2022-12-13T10:29:03.797Z,77.49
2022-12-13T10:34:05.286Z,78.30
2022-12-13T10:39:17.237Z,78.37
2022-12-13T10:44:22.422Z,78.44
2022-12-13T10:49:27.196Z,79.21
2022-12-13T10:54:38.323Z,79.06
2022-12-13T10:59:40.550Z,79.69
2022-12-13T11:04:42.034Z,80.03
2022-12-13T11:09:43.455Z,80.14
2022-12-13T11:15:00.245Z,80.04
2022-12-13T11:20:05.332Z,80.81
2022-12-13T11:25:21.760Z,81.03
2022-12-13T11:30:33.339Z,81.04
2022-12-13T11:35:56.568Z,81.31
2022-12-13T11:41:10.924Z,80.79
2022-12-13T11:46:38.473Z,80.97
2022-12-13T11:51:50.166Z,81.23
2022-12-13T11:57:00.410Z,81.52
2022-12-13T12:02:21.422Z,80.91
2022-12-13T12:07:33.300Z,81.38
2022-12-13T12:12:37.880Z,82.11
2022-12-13T12:17:42.256Z,82.04
2022-12-13T12:22:52.061Z,81.67
2022-12-13T12:28:18.338Z,81.30
2022-12-13T12:33:40.102Z,81.49
2022-12-13T12:39:02.823Z,80.96
2022-12-13T12:44:17.457Z,80.70
2022-12-13T12:49:50.014Z,80.65
2022-12-13T12:55:26.212Z,82.07
2022-12-13T13:00:50.447Z,82.14
2022-12-13T13:06:05.863Z,81.23
2022-12-13T13:11:24.622Z,80.83
2022-12-13T13:16:26.949Z,80.63
2022-12-13T13:22:01.469Z,80.52
2022-12-13T13:27:32.677Z,81.45
2022-12-13T13:32:39.526Z,81.48
2022-12-13T13:37:47.231Z,80.57
2022-12-13T13:43:10.809Z,80.03
2022-12-13T13:49:00.128Z,79.84
2022-12-13T13:54:04.866Z,79.54
2022-12-13T13:59:33.363Z,79.21
2022-12-13T14:04:53.478Z,78.55
2022-12-13T14:10:22.140Z,79.01
2022-12-13T14:16:06.283Z,78.15
2022-12-13T14:21:26.566Z,78.15
2022-12-13T14:26:53.310Z,77.48
2022-12-13T14:31:55.228Z,76.84
2022-12-13T14:37:06.507Z,76.71
2022-12-13T14:42:33.814Z,76.47
2022-12-13T14:47:36.251Z,75.64
2022-12-13T14:52:39.963Z,75.73
2022-12-13T14:57:51.955Z,75.50
2022-12-13T15:02:57.539Z,75.33
2022-12-13T15:07:59.454Z,74.95
2022-12-13T15:13:29.068Z,75.13
2022-12-13T15:18:31.393Z,74.40
2022-12-13T15:23:48.773Z,74.78
2022-12-13T15:28:57.195Z,74.82
2022-12-13T15:34:29.394Z,74.45
2022-12-13T15:39:37.879Z,73.49
2022-12-13T15:44:48.100Z,73.29
2022-12-13T15:49:56.688Z,73.18
2022-12-13T15:55:03.139Z,72.97
2022-12-13T16:00:16.896Z,73.00
2022-12-13T16:05:40.089Z,72.31
2022-12-13T16:10:49.883Z,72.02
2022-12-13T16:16:00.331Z,72.20
2022-12-13T16:21:10.634Z,72.22
2022-12-13T16:26:13.561Z,71.99
2022-12-13T16:31:27.678Z,71.84
2022-12-13T16:36:29.146Z,71.72
2022-12-13T16:41:31.411Z,71.83
2022-12-13T16:47:12.980Z,71.39
2022-12-13T16:51:55.402Z,71.45
2022-12-13T16:56:56.824Z,71.88
2022-12-13T17:01:58.344Z,71.85
2022-12-13T18:02:11.777Z,71.45
2022-12-13T18:07:13.207Z,70.70
2022-12-13T18:12:15.439Z,70.79
2022-12-13T18:17:19.094Z,70.65
2022-12-13T18:22:20.647Z,70.57
2022-12-13T18:27:22.080Z,70.22
2022-12-13T18:32:23.486Z,70.22
2022-12-13T18:37:24.904Z,70.49
2022-12-13T18:42:26.324Z,70.20
2022-12-13T18:47:28.140Z,69.76
2022-12-13T18:52:29.622Z,69.28
2022-12-13T18:57:31.353Z,69.47
2022-12-13T19:02:34.854Z,69.55
2022-12-13T19:07:36.637Z,69.64
2022-12-13T19:12:38.323Z,70.05
2022-12-13T19:17:39.726Z,70.07
2022-12-13T19:56:51.683Z,69.65
2022-12-13T20:28:02.521Z,69.89
2022-12-13T20:33:06.676Z,69.79
2022-12-13T21:53:39.887Z,70.88
2022-12-13T21:59:00.409Z,70.72
2022-12-13T22:04:06.748Z,70.30
2022-12-13T22:09:08.530Z,70.67
2022-12-13T22:14:10.071Z,71.04
2022-12-13T22:19:15.527Z,70.93
2022-12-13T22:24:16.995Z,70.15
2022-12-13T22:29:18.475Z,70.50
2022-12-13T22:34:19.887Z,70.51
2022-12-13T22:39:23.315Z,70.37
2022-12-13T22:44:25.111Z,71.00
2022-12-13T22:49:26.627Z,71.89
2022-12-13T22:54:28.027Z,72.01
2022-12-13T22:59:29.589Z,72.08
2022-12-13T23:04:31.869Z,72.55
2022-12-13T23:09:33.406Z,72.77
2022-12-13T23:14:34.946Z,72.48
2022-12-13T23:19:48.860Z,72.84
2022-12-13T23:24:53.291Z,72.90
2022-12-13T23:29:54.698Z,72.86
2022-12-13T23:34:56.095Z,72.93
2022-12-13T23:39:57.506Z,73.04
2022-12-13T23:44:58.979Z,72.91
2022-12-13T23:50:00.367Z,72.96
2022-12-13T23:55:01.768Z,73.33
